sensor_id;sensor_type;location;lat;lon;timestamp;P1;durP1;ratioP1;P2;durP2;ratioP2
14125;SDS011;7141;49.484;11.242;2023-07-20T00:01:21;2.87;;;2.30;;
14125;SDS011;7141;49.484;11.242;2023-07-20T00:03:47;3.03;;;2.30;;
14125;SDS011;7141;49.484;11.242;2023-07-20T00:06:19;3.13;;;2.20;;
14125;SDS011;7141;49.484;11.242;2023-07-20T00:08:45;3.00;;;2.50;;
14125;SDS011;7141;49.484;11.242;2023-07-20T00:11:11;2.80;;;2.40;;
14125;SDS011;7141;49.484;11.242;2023-07-20T00:13:38;2.63;;;2.43;;
14125;SDS011;7141;49.484;11.242;2023-07-20T00:16:04;2.57;;;2.33;;
14125;SDS011;7141;49.484;11.242;2023-07-20T00:18:30;2.90;;;2.33;;
14125;SDS011;7141;49.484;11.242;2023-07-20T00:20:56;3.03;;;2.37;;
14125;SDS011;7141;49.484;11.242;2023-07-20T00:23:24;2.60;;;2.40;;
14125;SDS011;7141;49.484;11.242;2023-07-20T00:25:51;2.73;;;2.17;;
14125;SDS011;7141;49.484;11.242;2023-07-20T00:28:16;3.27;;;2.40;;
14125;SDS011;7141;49.484;11.242;2023-07-20T00:30:43;3.07;;;2.20;;
14125;SDS011;7141;49.484;11.242;2023-07-20T00:33:10;2.67;;;2.20;;
14125;SDS011;7141;49.484;11.242;2023-07-20T00:35:37;3.23;;;2.70;;
14125;SDS011;7141;49.484;11.242;2023-07-20T00:38:03;2.30;;;2.10;;
14125;SDS011;7141;49.484;11.242;2023-07-20T00:40:35;2.40;;;2.20;;
14125;SDS011;7141;49.484;11.242;2023-07-20T00:43:01;2.20;;;2.00;;
14125;SDS011;7141;49.484;11.242;2023-07-20T00:45:28;2.30;;;2.10;;
14125;SDS011;7141;49.484;11.242;2023-07-20T00:47:55;2.53;;;2.30;;
14125;SDS011;7141;49.484;11.242;2023-07-20T00:50:21;2.43;;;2.07;;
14125;SDS011;7141;49.484;11.242;2023-07-20T00:52:47;2.67;;;2.33;;
14125;SDS011;7141;49.484;11.242;2023-07-20T00:55:14;2.90;;;2.60;;
14125;SDS011;7141;49.484;11.242;2023-07-20T00:57:40;2.77;;;2.43;;
14125;SDS011;7141;49.484;11.242;2023-07-20T01:00:07;3.03;;;2.30;;
14125;SDS011;7141;49.484;11.242;2023-07-20T01:02:33;3.27;;;2.37;;
14125;SDS011;7141;49.484;11.242;2023-07-20T01:04:59;3.13;;;2.50;;
14125;SDS011;7141;49.484;11.242;2023-07-20T01:07:36;3.47;;;2.40;;
14125;SDS011;7141;49.484;11.242;2023-07-20T01:10:10;3.87;;;2.40;;
14125;SDS011;7141;49.484;11.242;2023-07-20T01:12:47;5.27;;;2.33;;
14125;SDS011;7141;49.484;11.242;2023-07-20T01:15:14;3.63;;;2.43;;
14125;SDS011;7141;49.484;11.242;2023-07-20T01:17:40;3.03;;;2.60;;
14125;SDS011;7141;49.484;11.242;2023-07-20T01:20:06;3.47;;;2.50;;
14125;SDS011;7141;49.484;11.242;2023-07-20T01:30:28;2.53;;;2.30;;
14125;SDS011;7141;49.484;11.242;2023-07-20T01:33:00;3.10;;;2.50;;
14125;SDS011;7141;49.484;11.242;2023-07-20T01:35:27;2.80;;;2.50;;
14125;SDS011;7141;49.484;11.242;2023-07-20T01:37:54;2.80;;;2.40;;
14125;SDS011;7141;49.484;11.242;2023-07-20T01:40:20;2.80;;;2.40;;
14125;SDS011;7141;49.484;11.242;2023-07-20T01:42:47;2.43;;;2.20;;
14125;SDS011;7141;49.484;11.242;2023-07-20T01:45:13;3.30;;;2.23;;
14125;SDS011;7141;49.484;11.242;2023-07-20T01:47:40;4.63;;;2.47;;
14125;SDS011;7141;49.484;11.242;2023-07-20T01:50:06;4.80;;;2.27;;
14125;SDS011;7141;49.484;11.242;2023-07-20T01:52:32;4.87;;;2.43;;
14125;SDS011;7141;49.484;11.242;2023-07-20T01:54:58;2.97;;;2.20;;
14125;SDS011;7141;49.484;11.242;2023-07-20T01:57:24;3.57;;;2.43;;
14125;SDS011;7141;49.484;11.242;2023-07-20T01:59:50;2.90;;;2.20;;
14125;SDS011;7141;49.484;11.242;2023-07-20T02:02:16;2.63;;;2.13;;
14125;SDS011;7141;49.484;11.242;2023-07-20T02:04:43;2.30;;;2.10;;
14125;SDS011;7141;49.484;11.242;2023-07-20T02:07:09;2.50;;;2.30;;
14125;SDS011;7141;49.484;11.242;2023-07-20T02:09:35;4.20;;;2.63;;
14125;SDS011;7141;49.484;11.242;2023-07-20T02:12:01;3.60;;;2.37;;
14125;SDS011;7141;49.484;11.242;2023-07-20T02:14:27;2.23;;;2.00;;
14125;SDS011;7141;49.484;11.242;2023-07-20T02:16:53;2.53;;;2.20;;
14125;SDS011;7141;49.484;11.242;2023-07-20T02:19:22;2.87;;;2.50;;
14125;SDS011;7141;49.484;11.242;2023-07-20T02:21:48;2.97;;;2.23;;
14125;SDS011;7141;49.484;11.242;2023-07-20T02:24:14;2.70;;;2.50;;
14125;SDS011;7141;49.484;11.242;2023-07-20T02:26:40;3.03;;;2.30;;
14125;SDS011;7141;49.484;11.242;2023-07-20T02:29:07;3.50;;;2.60;;
14125;SDS011;7141;49.484;11.242;2023-07-20T02:31:33;2.23;;;2.03;;
14125;SDS011;7141;49.484;11.242;2023-07-20T02:33:59;2.67;;;2.40;;
14125;SDS011;7141;49.484;11.242;2023-07-20T02:36:25;2.67;;;2.10;;
14125;SDS011;7141;49.484;11.242;2023-07-20T02:38:51;2.87;;;2.30;;
14125;SDS011;7141;49.484;11.242;2023-07-20T02:41:17;3.30;;;2.50;;
14125;SDS011;7141;49.484;11.242;2023-07-20T02:43:43;4.67;;;2.50;;
14125;SDS011;7141;49.484;11.242;2023-07-20T02:46:09;2.17;;;1.97;;
14125;SDS011;7141;49.484;11.242;2023-07-20T02:48:35;2.80;;;2.27;;
14125;SDS011;7141;49.484;11.242;2023-07-20T02:51:01;2.40;;;2.20;;
14125;SDS011;7141;49.484;11.242;2023-07-20T02:53:27;2.70;;;2.50;;
14125;SDS011;7141;49.484;11.242;2023-07-20T02:55:53;2.80;;;2.17;;
14125;SDS011;7141;49.484;11.242;2023-07-20T02:58:19;3.10;;;2.30;;
14125;SDS011;7141;49.484;11.242;2023-07-20T03:00:45;2.50;;;2.10;;
14125;SDS011;7141;49.484;11.242;2023-07-20T03:03:11;3.63;;;2.33;;
14125;SDS011;7141;49.484;11.242;2023-07-20T03:05:40;3.10;;;2.33;;
14125;SDS011;7141;49.484;11.242;2023-07-20T03:08:06;3.33;;;2.60;;
14125;SDS011;7141;49.484;11.242;2023-07-20T03:10:32;3.60;;;2.70;;
14125;SDS011;7141;49.484;11.242;2023-07-20T03:12:58;3.40;;;2.43;;
14125;SDS011;7141;49.484;11.242;2023-07-20T03:15:24;2.40;;;2.20;;
14125;SDS011;7141;49.484;11.242;2023-07-20T03:17:50;2.50;;;2.13;;
14125;SDS011;7141;49.484;11.242;2023-07-20T03:20:16;2.60;;;2.10;;
14125;SDS011;7141;49.484;11.242;2023-07-20T03:22:42;3.70;;;2.70;;
14125;SDS011;7141;49.484;11.242;2023-07-20T03:25:08;2.97;;;2.60;;
14125;SDS011;7141;49.484;11.242;2023-07-20T03:27:34;2.67;;;2.30;;
14125;SDS011;7141;49.484;11.242;2023-07-20T03:30:00;3.63;;;2.70;;
14125;SDS011;7141;49.484;11.242;2023-07-20T03:32:27;2.60;;;2.30;;
14125;SDS011;7141;49.484;11.242;2023-07-20T03:34:53;2.80;;;2.17;;
14125;SDS011;7141;49.484;11.242;2023-07-20T03:37:19;2.50;;;2.30;;
14125;SDS011;7141;49.484;11.242;2023-07-20T03:39:45;2.57;;;2.37;;
14125;SDS011;7141;49.484;11.242;2023-07-20T03:42:10;2.83;;;2.57;;
14125;SDS011;7141;49.484;11.242;2023-07-20T03:44:36;4.63;;;2.37;;
14125;SDS011;7141;49.484;11.242;2023-07-20T03:47:03;2.50;;;2.30;;
14125;SDS011;7141;49.484;11.242;2023-07-20T03:49:29;3.40;;;2.53;;
14125;SDS011;7141;49.484;11.242;2023-07-20T03:51:55;2.43;;;2.23;;
14125;SDS011;7141;49.484;11.242;2023-07-20T03:54:21;2.63;;;2.43;;
14125;SDS011;7141;49.484;11.242;2023-07-20T03:56:47;2.77;;;2.43;;
14125;SDS011;7141;49.484;11.242;2023-07-20T03:59:13;2.53;;;2.20;;
14125;SDS011;7141;49.484;11.242;2023-07-20T04:01:39;2.53;;;2.30;;
14125;SDS011;7141;49.484;11.242;2023-07-20T04:04:06;3.07;;;2.30;;
14125;SDS011;7141;49.484;11.242;2023-07-20T04:06:33;3.00;;;2.70;;
14125;SDS011;7141;49.484;11.242;2023-07-20T04:08:59;5.17;;;2.70;;
14125;SDS011;7141;49.484;11.242;2023-07-20T04:11:25;3.17;;;2.50;;
14125;SDS011;7141;49.484;11.242;2023-07-20T04:13:51;3.90;;;2.80;;
14125;SDS011;7141;49.484;11.242;2023-07-20T04:16:17;3.63;;;3.17;;
14125;SDS011;7141;49.484;11.242;2023-07-20T04:18:45;3.93;;;2.90;;
14125;SDS011;7141;49.484;11.242;2023-07-20T04:21:11;4.30;;;2.87;;
14125;SDS011;7141;49.484;11.242;2023-07-20T04:23:37;3.67;;;2.70;;
14125;SDS011;7141;49.484;11.242;2023-07-20T04:26:03;4.97;;;2.77;;
14125;SDS011;7141;49.484;11.242;2023-07-20T04:28:29;3.73;;;2.87;;
14125;SDS011;7141;49.484;11.242;2023-07-20T04:30:55;3.83;;;3.07;;
14125;SDS011;7141;49.484;11.242;2023-07-20T04:33:34;4.37;;;3.33;;
14125;SDS011;7141;49.484;11.242;2023-07-20T04:36:00;4.33;;;2.90;;
14125;SDS011;7141;49.484;11.242;2023-07-20T04:38:26;3.33;;;2.90;;
14125;SDS011;7141;49.484;11.242;2023-07-20T04:40:53;3.43;;;2.80;;
14125;SDS011;7141;49.484;11.242;2023-07-20T04:43:19;6.13;;;3.33;;
14125;SDS011;7141;49.484;11.242;2023-07-20T04:45:45;5.70;;;2.90;;
14125;SDS011;7141;49.484;11.242;2023-07-20T04:48:12;7.93;;;3.20;;
14125;SDS011;7141;49.484;11.242;2023-07-20T04:50:41;5.57;;;3.57;;
14125;SDS011;7141;49.484;11.242;2023-07-20T04:53:10;4.23;;;2.97;;
14125;SDS011;7141;49.484;11.242;2023-07-20T04:55:37;6.27;;;3.37;;
14125;SDS011;7141;49.484;11.242;2023-07-20T04:58:04;5.33;;;3.30;;
14125;SDS011;7141;49.484;11.242;2023-07-20T05:00:31;6.27;;;2.90;;
14125;SDS011;7141;49.484;11.242;2023-07-20T05:02:57;5.53;;;3.33;;
14125;SDS011;7141;49.484;11.242;2023-07-20T05:05:23;5.37;;;3.57;;
14125;SDS011;7141;49.484;11.242;2023-07-20T05:07:49;5.77;;;3.37;;
14125;SDS011;7141;49.484;11.242;2023-07-20T05:10:15;5.17;;;3.30;;
14125;SDS011;7141;49.484;11.242;2023-07-20T05:12:41;5.83;;;3.53;;
14125;SDS011;7141;49.484;11.242;2023-07-20T05:15:08;5.13;;;3.70;;
14125;SDS011;7141;49.484;11.242;2023-07-20T05:17:34;8.03;;;4.43;;
14125;SDS011;7141;49.484;11.242;2023-07-20T05:20:00;7.00;;;3.77;;
14125;SDS011;7141;49.484;11.242;2023-07-20T05:22:26;7.23;;;4.30;;
14125;SDS011;7141;49.484;11.242;2023-07-20T05:24:52;5.97;;;3.63;;
14125;SDS011;7141;49.484;11.242;2023-07-20T05:27:18;9.13;;;4.33;;
14125;SDS011;7141;49.484;11.242;2023-07-20T05:29:46;7.97;;;4.50;;
14125;SDS011;7141;49.484;11.242;2023-07-20T05:32:13;6.10;;;4.00;;
14125;SDS011;7141;49.484;11.242;2023-07-20T05:34:39;10.00;;;3.60;;
14125;SDS011;7141;49.484;11.242;2023-07-20T05:37:05;7.73;;;4.30;;
14125;SDS011;7141;49.484;11.242;2023-07-20T05:39:34;8.70;;;3.50;;
14125;SDS011;7141;49.484;11.242;2023-07-20T05:42:00;7.70;;;4.10;;
14125;SDS011;7141;49.484;11.242;2023-07-20T05:44:26;7.37;;;3.70;;
14125;SDS011;7141;49.484;11.242;2023-07-20T05:46:52;8.27;;;3.50;;
14125;SDS011;7141;49.484;11.242;2023-07-20T05:49:18;8.43;;;3.90;;
14125;SDS011;7141;49.484;11.242;2023-07-20T05:51:44;7.23;;;3.80;;
14125;SDS011;7141;49.484;11.242;2023-07-20T05:54:11;6.50;;;3.73;;
14125;SDS011;7141;49.484;11.242;2023-07-20T05:56:37;4.90;;;4.07;;
14125;SDS011;7141;49.484;11.242;2023-07-20T05:59:03;7.50;;;3.63;;
14125;SDS011;7141;49.484;11.242;2023-07-20T06:01:29;7.53;;;4.10;;
14125;SDS011;7141;49.484;11.242;2023-07-20T06:03:55;5.80;;;3.60;;
14125;SDS011;7141;49.484;11.242;2023-07-20T06:06:21;8.57;;;3.70;;
14125;SDS011;7141;49.484;11.242;2023-07-20T06:08:47;7.60;;;3.73;;
14125;SDS011;7141;49.484;11.242;2023-07-20T06:11:13;8.30;;;3.40;;
14125;SDS011;7141;49.484;11.242;2023-07-20T06:13:39;3.80;;;3.27;;
14125;SDS011;7141;49.484;11.242;2023-07-20T06:16:05;5.07;;;3.20;;
14125;SDS011;7141;49.484;11.242;2023-07-20T06:18:31;5.93;;;3.33;;
14125;SDS011;7141;49.484;11.242;2023-07-20T06:20:57;6.60;;;3.00;;
14125;SDS011;7141;49.484;11.242;2023-07-20T06:23:23;6.20;;;3.17;;
14125;SDS011;7141;49.484;11.242;2023-07-20T06:25:49;5.90;;;3.13;;
14125;SDS011;7141;49.484;11.242;2023-07-20T06:28:15;5.60;;;3.10;;
14125;SDS011;7141;49.484;11.242;2023-07-20T06:30:43;4.53;;;3.00;;
14125;SDS011;7141;49.484;11.242;2023-07-20T06:33:08;4.33;;;3.17;;
14125;SDS011;7141;49.484;11.242;2023-07-20T06:35:34;6.37;;;2.60;;
14125;SDS011;7141;49.484;11.242;2023-07-20T06:38:01;7.07;;;2.97;;
14125;SDS011;7141;49.484;11.242;2023-07-20T06:40:29;6.07;;;2.80;;
14125;SDS011;7141;49.484;11.242;2023-07-20T06:42:55;5.00;;;2.80;;
14125;SDS011;7141;49.484;11.242;2023-07-20T06:45:21;6.30;;;3.10;;
14125;SDS011;7141;49.484;11.242;2023-07-20T06:47:47;5.67;;;2.90;;
14125;SDS011;7141;49.484;11.242;2023-07-20T06:50:13;4.07;;;2.53;;
14125;SDS011;7141;49.484;11.242;2023-07-20T06:52:39;4.17;;;2.70;;
14125;SDS011;7141;49.484;11.242;2023-07-20T06:55:05;4.90;;;2.73;;
14125;SDS011;7141;49.484;11.242;2023-07-20T06:57:32;4.63;;;2.73;;
14125;SDS011;7141;49.484;11.242;2023-07-20T06:59:58;6.93;;;3.00;;
14125;SDS011;7141;49.484;11.242;2023-07-20T07:02:23;4.03;;;2.67;;
14125;SDS011;7141;49.484;11.242;2023-07-20T07:04:49;3.87;;;2.63;;
14125;SDS011;7141;49.484;11.242;2023-07-20T07:07:15;5.73;;;2.90;;
14125;SDS011;7141;49.484;11.242;2023-07-20T07:09:42;4.40;;;3.17;;
14125;SDS011;7141;49.484;11.242;2023-07-20T07:12:08;5.73;;;2.80;;
14125;SDS011;7141;49.484;11.242;2023-07-20T07:14:34;4.63;;;2.67;;
14125;SDS011;7141;49.484;11.242;2023-07-20T07:17:00;4.30;;;2.73;;
14125;SDS011;7141;49.484;11.242;2023-07-20T07:19:26;4.17;;;2.53;;
14125;SDS011;7141;49.484;11.242;2023-07-20T07:21:52;4.40;;;3.03;;
14125;SDS011;7141;49.484;11.242;2023-07-20T07:24:18;4.77;;;2.80;;
14125;SDS011;7141;49.484;11.242;2023-07-20T07:26:44;4.53;;;2.80;;
14125;SDS011;7141;49.484;11.242;2023-07-20T07:29:10;4.90;;;2.53;;
14125;SDS011;7141;49.484;11.242;2023-07-20T07:31:36;5.47;;;2.97;;
14125;SDS011;7141;49.484;11.242;2023-07-20T07:34:03;3.17;;;2.30;;
14125;SDS011;7141;49.484;11.242;2023-07-20T07:36:30;6.60;;;2.47;;
14125;SDS011;7141;49.484;11.242;2023-07-20T07:38:56;4.83;;;2.53;;
14125;SDS011;7141;49.484;11.242;2023-07-20T07:41:22;5.13;;;3.13;;
14125;SDS011;7141;49.484;11.242;2023-07-20T07:43:48;4.63;;;2.60;;
14125;SDS011;7141;49.484;11.242;2023-07-20T07:46:14;5.33;;;2.93;;
14125;SDS011;7141;49.484;11.242;2023-07-20T07:48:40;3.30;;;2.50;;
14125;SDS011;7141;49.484;11.242;2023-07-20T07:51:06;7.33;;;2.63;;
14125;SDS011;7141;49.484;11.242;2023-07-20T07:53:32;3.53;;;2.37;;
14125;SDS011;7141;49.484;11.242;2023-07-20T07:56:00;6.37;;;2.77;;
14125;SDS011;7141;49.484;11.242;2023-07-20T07:58:28;4.50;;;2.67;;
14125;SDS011;7141;49.484;11.242;2023-07-20T08:00:54;6.37;;;2.77;;
14125;SDS011;7141;49.484;11.242;2023-07-20T08:03:20;3.73;;;2.40;;
14125;SDS011;7141;49.484;11.242;2023-07-20T08:05:46;5.00;;;2.60;;
14125;SDS011;7141;49.484;11.242;2023-07-20T08:08:12;3.40;;;2.50;;
14125;SDS011;7141;49.484;11.242;2023-07-20T08:10:38;2.30;;;2.00;;
14125;SDS011;7141;49.484;11.242;2023-07-20T08:13:04;3.53;;;2.43;;
14125;SDS011;7141;49.484;11.242;2023-07-20T08:15:30;4.10;;;2.47;;
14125;SDS011;7141;49.484;11.242;2023-07-20T08:17:56;3.63;;;2.30;;
14125;SDS011;7141;49.484;11.242;2023-07-20T08:20:22;3.10;;;2.00;;
14125;SDS011;7141;49.484;11.242;2023-07-20T08:22:51;3.60;;;2.33;;
14125;SDS011;7141;49.484;11.242;2023-07-20T08:25:18;6.10;;;2.53;;
14125;SDS011;7141;49.484;11.242;2023-07-20T08:27:44;5.13;;;2.77;;
14125;SDS011;7141;49.484;11.242;2023-07-20T08:30:12;4.47;;;2.70;;
14125;SDS011;7141;49.484;11.242;2023-07-20T08:32:38;2.40;;;2.10;;
14125;SDS011;7141;49.484;11.242;2023-07-20T08:35:04;3.73;;;2.40;;
14125;SDS011;7141;49.484;11.242;2023-07-20T08:37:31;4.47;;;2.37;;
14125;SDS011;7141;49.484;11.242;2023-07-20T08:39:57;3.13;;;2.40;;
14125;SDS011;7141;49.484;11.242;2023-07-20T08:42:23;4.60;;;2.70;;
14125;SDS011;7141;49.484;11.242;2023-07-20T08:44:49;3.10;;;2.33;;
14125;SDS011;7141;49.484;11.242;2023-07-20T08:47:16;4.30;;;2.63;;
14125;SDS011;7141;49.484;11.242;2023-07-20T08:49:42;3.33;;;2.30;;
14125;SDS011;7141;49.484;11.242;2023-07-20T08:52:08;4.60;;;2.53;;
14125;SDS011;7141;49.484;11.242;2023-07-20T08:54:34;2.50;;;2.30;;
14125;SDS011;7141;49.484;11.242;2023-07-20T08:57:04;4.23;;;2.43;;
14125;SDS011;7141;49.484;11.242;2023-07-20T08:59:31;2.60;;;2.33;;
14125;SDS011;7141;49.484;11.242;2023-07-20T09:02:00;2.27;;;2.07;;
14125;SDS011;7141;49.484;11.242;2023-07-20T09:04:27;4.43;;;2.27;;
14125;SDS011;7141;49.484;11.242;2023-07-20T09:06:53;4.83;;;2.53;;
14125;SDS011;7141;49.484;11.242;2023-07-20T09:09:19;3.60;;;2.60;;
14125;SDS011;7141;49.484;11.242;2023-07-20T09:11:53;4.03;;;2.47;;
14125;SDS011;7141;49.484;11.242;2023-07-20T09:14:20;5.37;;;2.50;;
14125;SDS011;7141;49.484;11.242;2023-07-20T09:16:49;4.23;;;2.40;;
14125;SDS011;7141;49.484;11.242;2023-07-20T09:19:16;5.27;;;2.40;;
14125;SDS011;7141;49.484;11.242;2023-07-20T09:21:45;4.67;;;2.60;;
14125;SDS011;7141;49.484;11.242;2023-07-20T09:24:12;3.30;;;2.13;;
14125;SDS011;7141;49.484;11.242;2023-07-20T09:26:41;3.27;;;2.03;;
14125;SDS011;7141;49.484;11.242;2023-07-20T09:29:10;8.00;;;2.23;;
14125;SDS011;7141;49.484;11.242;2023-07-20T09:31:37;3.03;;;2.07;;
14125;SDS011;7141;49.484;11.242;2023-07-20T09:34:05;2.97;;;2.00;;
14125;SDS011;7141;49.484;11.242;2023-07-20T09:36:33;2.77;;;2.13;;
14125;SDS011;7141;49.484;11.242;2023-07-20T09:39:00;2.90;;;2.10;;
14125;SDS011;7141;49.484;11.242;2023-07-20T09:41:26;3.83;;;2.20;;
14125;SDS011;7141;49.484;11.242;2023-07-20T09:43:52;3.67;;;1.90;;
14125;SDS011;7141;49.484;11.242;2023-07-20T09:46:19;3.83;;;2.20;;
14125;SDS011;7141;49.484;11.242;2023-07-20T09:48:54;3.13;;;2.10;;
14125;SDS011;7141;49.484;11.242;2023-07-20T09:51:23;2.93;;;2.03;;
14125;SDS011;7141;49.484;11.242;2023-07-20T09:53:51;3.13;;;1.83;;
14125;SDS011;7141;49.484;11.242;2023-07-20T09:56:21;3.83;;;2.17;;
14125;SDS011;7141;49.484;11.242;2023-07-20T09:58:48;4.17;;;2.00;;
14125;SDS011;7141;49.484;11.242;2023-07-20T10:01:16;3.00;;;2.10;;
14125;SDS011;7141;49.484;11.242;2023-07-20T10:03:43;3.23;;;2.07;;
14125;SDS011;7141;49.484;11.242;2023-07-20T10:06:11;2.60;;;1.80;;
14125;SDS011;7141;49.484;11.242;2023-07-20T10:08:41;2.70;;;1.90;;
14125;SDS011;7141;49.484;11.242;2023-07-20T10:11:07;3.40;;;2.33;;
14125;SDS011;7141;49.484;11.242;2023-07-20T10:13:36;2.40;;;1.73;;
14125;SDS011;7141;49.484;11.242;2023-07-20T10:16:03;2.97;;;1.87;;
14125;SDS011;7141;49.484;11.242;2023-07-20T10:21:00;2.70;;;1.90;;
14125;SDS011;7141;49.484;11.242;2023-07-20T10:23:28;2.93;;;1.90;;
14125;SDS011;7141;49.484;11.242;2023-07-20T10:25:55;2.63;;;1.70;;
14125;SDS011;7141;49.484;11.242;2023-07-20T10:28:21;2.47;;;1.70;;
14125;SDS011;7141;49.484;11.242;2023-07-20T10:30:51;2.50;;;1.60;;
14125;SDS011;7141;49.484;11.242;2023-07-20T10:33:17;2.10;;;1.47;;
14125;SDS011;7141;49.484;11.242;2023-07-20T10:35:50;1.90;;;1.60;;
14125;SDS011;7141;49.484;11.242;2023-07-20T10:38:16;3.00;;;1.87;;
14125;SDS011;7141;49.484;11.242;2023-07-20T10:40:42;2.37;;;1.73;;
14125;SDS011;7141;49.484;11.242;2023-07-20T10:43:09;3.00;;;1.70;;
14125;SDS011;7141;49.484;11.242;2023-07-20T10:45:40;1.90;;;1.63;;
14125;SDS011;7141;49.484;11.242;2023-07-20T10:48:12;2.17;;;1.50;;
14125;SDS011;7141;49.484;11.242;2023-07-20T10:50:40;1.70;;;1.60;;
14125;SDS011;7141;49.484;11.242;2023-07-20T10:53:10;2.03;;;1.40;;
14125;SDS011;7141;49.484;11.242;2023-07-20T10:55:37;3.60;;;1.60;;
14125;SDS011;7141;49.484;11.242;2023-07-20T11:00:36;1.70;;;1.60;;
14125;SDS011;7141;49.484;11.242;2023-07-20T11:03:02;2.80;;;1.83;;
14125;SDS011;7141;49.484;11.242;2023-07-20T11:05:32;2.37;;;1.50;;
14125;SDS011;7141;49.484;11.242;2023-07-20T11:07:59;2.17;;;1.50;;
14125;SDS011;7141;49.484;11.242;2023-07-20T11:10:25;2.37;;;1.60;;
14125;SDS011;7141;49.484;11.242;2023-07-20T11:16:01;2.63;;;1.60;;
14125;SDS011;7141;49.484;11.242;2023-07-20T11:18:32;1.93;;;1.50;;
14125;SDS011;7141;49.484;11.242;2023-07-20T11:20:59;4.03;;;1.50;;
14125;SDS011;7141;49.484;11.242;2023-07-20T11:23:25;3.20;;;1.80;;
14125;SDS011;7141;49.484;11.242;2023-07-20T11:25:51;2.23;;;1.40;;
14125;SDS011;7141;49.484;11.242;2023-07-20T11:28:17;2.50;;;1.77;;
14125;SDS011;7141;49.484;11.242;2023-07-20T11:30:43;1.90;;;1.63;;
14125;SDS011;7141;49.484;11.242;2023-07-20T11:33:09;2.23;;;1.70;;
14125;SDS011;7141;49.484;11.242;2023-07-20T11:35:36;2.07;;;1.37;;
14125;SDS011;7141;49.484;11.242;2023-07-20T11:38:08;2.10;;;1.50;;
14125;SDS011;7141;49.484;11.242;2023-07-20T11:40:34;1.47;;;1.23;;
14125;SDS011;7141;49.484;11.242;2023-07-20T11:43:00;1.40;;;1.30;;
14125;SDS011;7141;49.484;11.242;2023-07-20T11:45:26;1.63;;;1.43;;
14125;SDS011;7141;49.484;11.242;2023-07-20T11:47:52;1.63;;;1.40;;
14125;SDS011;7141;49.484;11.242;2023-07-20T11:50:18;2.27;;;1.50;;
14125;SDS011;7141;49.484;11.242;2023-07-20T11:52:44;1.83;;;1.30;;
14125;SDS011;7141;49.484;11.242;2023-07-20T11:55:10;1.40;;;1.30;;
14125;SDS011;7141;49.484;11.242;2023-07-20T11:57:37;1.67;;;1.40;;
14125;SDS011;7141;49.484;11.242;2023-07-20T12:00:03;1.70;;;1.50;;
14125;SDS011;7141;49.484;11.242;2023-07-20T12:02:34;1.50;;;1.40;;
14125;SDS011;7141;49.484;11.242;2023-07-20T12:05:00;1.60;;;1.50;;
14125;SDS011;7141;49.484;11.242;2023-07-20T12:07:28;1.77;;;1.40;;
14125;SDS011;7141;49.484;11.242;2023-07-20T12:10:07;2.63;;;1.50;;
14125;SDS011;7141;49.484;11.242;2023-07-20T12:12:34;2.10;;;1.50;;
14125;SDS011;7141;49.484;11.242;2023-07-20T12:17:41;1.70;;;1.53;;
14125;SDS011;7141;49.484;11.242;2023-07-20T12:20:07;1.90;;;1.20;;
14125;SDS011;7141;49.484;11.242;2023-07-20T12:22:38;1.90;;;1.53;;
14125;SDS011;7141;49.484;11.242;2023-07-20T12:25:07;1.60;;;1.40;;
14125;SDS011;7141;49.484;11.242;2023-07-20T12:27:35;1.73;;;1.27;;
14125;SDS011;7141;49.484;11.242;2023-07-20T12:30:02;1.70;;;1.20;;
14125;SDS011;7141;49.484;11.242;2023-07-20T12:32:29;4.30;;;1.30;;
14125;SDS011;7141;49.484;11.242;2023-07-20T12:34:55;1.47;;;1.30;;
14125;SDS011;7141;49.484;11.242;2023-07-20T12:37:21;1.63;;;1.47;;
14125;SDS011;7141;49.484;11.242;2023-07-20T12:39:47;2.10;;;1.40;;
14125;SDS011;7141;49.484;11.242;2023-07-20T12:42:13;1.77;;;1.37;;
14125;SDS011;7141;49.484;11.242;2023-07-20T12:44:41;1.50;;;1.40;;
14125;SDS011;7141;49.484;11.242;2023-07-20T12:47:07;1.53;;;1.20;;
14125;SDS011;7141;49.484;11.242;2023-07-20T12:49:33;2.90;;;1.30;;
14125;SDS011;7141;49.484;11.242;2023-07-20T12:51:59;1.30;;;1.20;;
14125;SDS011;7141;49.484;11.242;2023-07-20T12:54:25;1.50;;;1.30;;
14125;SDS011;7141;49.484;11.242;2023-07-20T12:56:51;1.60;;;1.40;;
14125;SDS011;7141;49.484;11.242;2023-07-20T12:59:17;1.40;;;1.30;;
14125;SDS011;7141;49.484;11.242;2023-07-20T13:01:43;1.50;;;1.40;;
14125;SDS011;7141;49.484;11.242;2023-07-20T13:04:09;1.40;;;1.30;;
14125;SDS011;7141;49.484;11.242;2023-07-20T13:06:35;2.33;;;1.33;;
14125;SDS011;7141;49.484;11.242;2023-07-20T13:09:02;1.50;;;1.40;;
14125;SDS011;7141;49.484;11.242;2023-07-20T13:11:28;1.47;;;1.37;;
14125;SDS011;7141;49.484;11.242;2023-07-20T13:13:54;2.30;;;1.50;;
14125;SDS011;7141;49.484;11.242;2023-07-20T13:16:20;1.50;;;1.40;;
14125;SDS011;7141;49.484;11.242;2023-07-20T13:18:46;1.83;;;1.47;;
14125;SDS011;7141;49.484;11.242;2023-07-20T13:21:12;1.17;;;1.07;;
14125;SDS011;7141;49.484;11.242;2023-07-20T13:23:38;2.27;;;1.50;;
14125;SDS011;7141;49.484;11.242;2023-07-20T13:26:04;1.30;;;1.20;;
14125;SDS011;7141;49.484;11.242;2023-07-20T13:28:30;1.20;;;1.10;;
14125;SDS011;7141;49.484;11.242;2023-07-20T13:30:56;2.30;;;1.27;;
14125;SDS011;7141;49.484;11.242;2023-07-20T13:33:22;1.27;;;1.17;;
14125;SDS011;7141;49.484;11.242;2023-07-20T13:35:48;1.50;;;1.30;;
14125;SDS011;7141;49.484;11.242;2023-07-20T13:38:14;1.50;;;1.37;;
14125;SDS011;7141;49.484;11.242;2023-07-20T13:40:40;1.50;;;1.40;;
14125;SDS011;7141;49.484;11.242;2023-07-20T13:43:07;2.67;;;1.40;;
14125;SDS011;7141;49.484;11.242;2023-07-20T13:45:33;2.50;;;1.47;;
14125;SDS011;7141;49.484;11.242;2023-07-20T13:47:59;1.70;;;1.50;;
14125;SDS011;7141;49.484;11.242;2023-07-20T13:50:25;1.77;;;1.50;;
14125;SDS011;7141;49.484;11.242;2023-07-20T13:52:53;1.50;;;1.40;;
14125;SDS011;7141;49.484;11.242;2023-07-20T13:55:19;2.53;;;1.53;;
14125;SDS011;7141;49.484;11.242;2023-07-20T13:57:45;1.50;;;1.40;;
14125;SDS011;7141;49.484;11.242;2023-07-20T14:00:11;1.90;;;1.47;;
14125;SDS011;7141;49.484;11.242;2023-07-20T14:02:38;1.40;;;1.30;;
14125;SDS011;7141;49.484;11.242;2023-07-20T14:05:04;3.13;;;1.50;;
14125;SDS011;7141;49.484;11.242;2023-07-20T14:07:30;2.37;;;1.60;;
14125;SDS011;7141;49.484;11.242;2023-07-20T14:09:57;1.53;;;1.33;;
14125;SDS011;7141;49.484;11.242;2023-07-20T14:12:24;1.90;;;1.23;;
14125;SDS011;7141;49.484;11.242;2023-07-20T14:14:50;1.80;;;1.40;;
14125;SDS011;7141;49.484;11.242;2023-07-20T14:17:16;1.97;;;1.43;;
14125;SDS011;7141;49.484;11.242;2023-07-20T14:19:42;2.00;;;1.53;;
14125;SDS011;7141;49.484;11.242;2023-07-20T14:22:08;2.23;;;1.50;;
14125;SDS011;7141;49.484;11.242;2023-07-20T14:24:34;1.60;;;1.50;;
14125;SDS011;7141;49.484;11.242;2023-07-20T14:27:00;1.67;;;1.40;;
14125;SDS011;7141;49.484;11.242;2023-07-20T14:29:26;2.40;;;1.70;;
14125;SDS011;7141;49.484;11.242;2023-07-20T14:31:52;2.37;;;1.63;;
14125;SDS011;7141;49.484;11.242;2023-07-20T14:34:18;2.23;;;1.40;;
14125;SDS011;7141;49.484;11.242;2023-07-20T14:36:45;2.93;;;1.50;;
14125;SDS011;7141;49.484;11.242;2023-07-20T14:39:11;1.80;;;1.40;;
14125;SDS011;7141;49.484;11.242;2023-07-20T14:41:37;2.60;;;1.43;;
14125;SDS011;7141;49.484;11.242;2023-07-20T14:44:02;1.63;;;1.40;;
14125;SDS011;7141;49.484;11.242;2023-07-20T14:46:28;2.83;;;1.60;;
14125;SDS011;7141;49.484;11.242;2023-07-20T14:48:55;1.60;;;1.30;;
14125;SDS011;7141;49.484;11.242;2023-07-20T14:51:21;2.13;;;1.60;;
14125;SDS011;7141;49.484;11.242;2023-07-20T14:53:47;2.53;;;1.67;;
14125;SDS011;7141;49.484;11.242;2023-07-20T14:56:13;1.60;;;1.30;;
14125;SDS011;7141;49.484;11.242;2023-07-20T14:58:39;1.57;;;1.43;;
14125;SDS011;7141;49.484;11.242;2023-07-20T15:01:05;2.97;;;1.60;;
14125;SDS011;7141;49.484;11.242;2023-07-20T15:03:31;2.63;;;1.40;;